createdAt,value
2022-11-16T00:00:27.337Z,93878
2022-11-16T00:03:52.584Z,93867
2022-11-16T00:07:17.883Z,93866
2022-11-16T00:10:43.075Z,93862
2022-11-16T00:14:08.336Z,93855
2022-11-16T00:17:33.541Z,93855
2022-11-16T00:20:58.765Z,93849
2022-11-16T00:24:23.987Z,93840
2022-11-16T00:27:49.211Z,93831
2022-11-16T00:31:14.466Z,93825
2022-11-16T00:34:39.675Z,93830
2022-11-16T00:38:04.900Z,93825
2022-11-16T00:41:30.133Z,93818
2022-11-16T00:44:55.389Z,93815
2022-11-16T00:48:20.630Z,93811
2022-11-16T00:51:45.820Z,93812
2022-11-16T00:55:11.116Z,93811
2022-11-16T00:58:36.448Z,93807
2022-11-16T01:02:01.572Z,93811
2022-11-16T01:05:26.808Z,93815
2022-11-16T01:08:52.027Z,93814
2022-11-16T01:12:17.229Z,93808
2022-11-16T01:15:42.461Z,93803
2022-11-16T01:19:07.702Z,93803
2022-11-16T01:22:32.949Z,93800
2022-11-16T01:25:58.148Z,93806
2022-11-16T01:29:23.383Z,93802
2022-11-16T01:32:48.608Z,93791
2022-11-16T01:36:13.857Z,93780
2022-11-16T01:39:39.103Z,93779
2022-11-16T01:43:04.305Z,93778
2022-11-16T01:46:29.549Z,93768
2022-11-16T01:49:54.761Z,93770
2022-11-16T01:53:19.998Z,93772
2022-11-16T01:56:45.242Z,93770
2022-11-16T02:00:10.452Z,93769
2022-11-16T02:03:35.691Z,93762
2022-11-16T02:07:00.973Z,93754
2022-11-16T02:10:26.153Z,93749
2022-11-16T02:13:51.664Z,93749
2022-11-16T02:17:16.640Z,93748
2022-11-16T02:20:41.864Z,93743
2022-11-16T02:24:07.103Z,93739
2022-11-16T02:27:32.330Z,93736
2022-11-16T02:30:57.626Z,93731
2022-11-16T02:34:22.855Z,93730
2022-11-16T02:37:48.084Z,93727
2022-11-16T02:41:13.316Z,93725
2022-11-16T02:44:38.564Z,93728
2022-11-16T02:48:03.799Z,93731
2022-11-16T02:51:29.001Z,93724
2022-11-16T02:54:54.236Z,93724
2022-11-16T02:58:19.466Z,93722
2022-11-16T03:01:44.683Z,93720
2022-11-16T03:05:09.922Z,93723
2022-11-16T03:08:35.379Z,93722
2022-11-16T03:12:00.347Z,93721
2022-11-16T03:15:25.566Z,93717
2022-11-16T03:18:50.793Z,93710
2022-11-16T03:22:16.031Z,93718
2022-11-16T03:25:41.243Z,93723
2022-11-16T03:29:06.469Z,93724
2022-11-16T03:32:31.689Z,93725
2022-11-16T03:35:56.925Z,93722
2022-11-16T03:39:22.169Z,93725
2022-11-16T03:42:47.376Z,93721
2022-11-16T03:46:12.602Z,93723
2022-11-16T03:49:37.869Z,93723
2022-11-16T03:53:03.096Z,93720
2022-11-16T03:56:28.354Z,93723
2022-11-16T03:59:53.556Z,93722
2022-11-16T04:03:18.753Z,93718
2022-11-16T04:06:43.977Z,93716
2022-11-16T04:10:09.203Z,93712
2022-11-16T04:13:34.423Z,93709
2022-11-16T04:16:59.609Z,93711
2022-11-16T04:20:24.844Z,93711
2022-11-16T04:23:50.033Z,93715
2022-11-16T04:27:15.252Z,93715
2022-11-16T04:30:40.491Z,93724
2022-11-16T04:34:05.666Z,93725
2022-11-16T04:37:30.881Z,93723
2022-11-16T04:40:56.121Z,93722
2022-11-16T04:44:23.738Z,93714
2022-11-16T04:47:46.561Z,93715
2022-11-16T04:51:11.777Z,93709
2022-11-16T04:54:37.003Z,93702
2022-11-16T04:58:02.232Z,93703
2022-11-16T05:01:27.495Z,93704
2022-11-16T05:04:52.730Z,93707
2022-11-16T05:08:17.910Z,93703
2022-11-16T05:11:43.133Z,93704
2022-11-16T05:15:08.342Z,93703
2022-11-16T05:18:33.790Z,93710
2022-11-16T05:21:58.784Z,93707
2022-11-16T05:25:23.973Z,93704
2022-11-16T05:28:49.185Z,93708
2022-11-16T05:32:14.417Z,93708
2022-11-16T05:35:39.646Z,93705
2022-11-16T05:39:04.877Z,93702
2022-11-16T05:42:30.066Z,93704
2022-11-16T05:45:55.271Z,93704
2022-11-16T05:49:20.494Z,93707
2022-11-16T05:52:45.717Z,93697
2022-11-16T05:56:10.971Z,93701
2022-11-16T05:59:36.140Z,93698
2022-11-16T06:03:01.408Z,93706
2022-11-16T06:06:26.590Z,93706
2022-11-16T06:09:51.800Z,93697
2022-11-16T06:13:17.059Z,93695
2022-11-16T06:16:42.602Z,93699
2022-11-16T06:20:07.562Z,93696
2022-11-16T06:23:32.777Z,93703
2022-11-16T06:26:58.006Z,93705
2022-11-16T06:30:23.200Z,93703
2022-11-16T06:33:48.645Z,93708
2022-11-16T06:37:13.602Z,93708
2022-11-16T06:40:38.799Z,93714
2022-11-16T06:44:04.011Z,93705
2022-11-16T06:47:29.215Z,93704
2022-11-16T06:50:54.547Z,93703
2022-11-16T06:54:19.625Z,93701
2022-11-16T06:57:44.842Z,93700
2022-11-16T07:01:10.061Z,93697
2022-11-16T07:04:35.251Z,93695
2022-11-16T07:08:00.579Z,93693
2022-11-16T07:11:25.673Z,93688
2022-11-16T07:14:50.904Z,93676
2022-11-16T07:18:16.112Z,93678
2022-11-16T07:21:41.332Z,93669
2022-11-16T07:25:06.653Z,93664
2022-11-16T07:28:32.001Z,93662
2022-11-16T07:31:56.956Z,93659
2022-11-16T07:35:22.158Z,93661
2022-11-16T07:38:47.373Z,93664
2022-11-16T07:42:12.706Z,93671
2022-11-16T07:45:37.775Z,93652
2022-11-16T07:49:05.902Z,93662
2022-11-16T07:52:28.189Z,93670
2022-11-16T07:55:53.393Z,93663
2022-11-16T07:59:18.830Z,93671
2022-11-16T08:02:43.782Z,93669
2022-11-16T08:06:08.967Z,93666
2022-11-16T08:09:34.196Z,93667
2022-11-16T08:12:59.397Z,93670
2022-11-16T08:16:24.724Z,93674
2022-11-16T08:19:49.814Z,93677
2022-11-16T08:23:15.015Z,93681
2022-11-16T08:26:40.226Z,93681
2022-11-16T08:30:05.426Z,93697
2022-11-16T08:33:30.761Z,93686
2022-11-16T08:36:55.849Z,93683
2022-11-16T08:40:21.033Z,93680
2022-11-16T08:43:46.265Z,93685
2022-11-16T08:47:11.479Z,93694
2022-11-16T08:50:55.759Z,93692
2022-11-16T08:54:01.914Z,93688
2022-11-16T08:57:27.108Z,93691
2022-11-16T09:00:52.324Z,93690
2022-11-16T09:04:17.562Z,93694
2022-11-16T09:07:42.905Z,93702
2022-11-16T09:11:07.997Z,93703
2022-11-16T09:14:33.216Z,93695
2022-11-16T09:17:58.445Z,93698
2022-11-16T09:21:23.642Z,93698
2022-11-16T09:24:48.885Z,93701
2022-11-16T09:28:14.076Z,93699
2022-11-16T09:31:39.276Z,93702
2022-11-16T09:35:04.500Z,93700
2022-11-16T09:38:40.486Z,93700
2022-11-16T09:41:54.907Z,93700
2022-11-16T09:45:20.110Z,93701
2022-11-16T09:48:45.379Z,93700
2022-11-16T09:52:10.598Z,93696
2022-11-16T09:55:35.809Z,93698
2022-11-16T09:59:01.180Z,93694
2022-11-16T10:02:26.228Z,93698
2022-11-16T10:05:51.435Z,93699
2022-11-16T10:09:16.643Z,93702
2022-11-16T10:12:41.844Z,93699
2022-11-16T10:16:07.082Z,93709
2022-11-16T10:19:32.277Z,93702
2022-11-16T10:22:57.621Z,93699
2022-11-16T10:26:22.709Z,93704
2022-11-16T10:29:47.909Z,93694
2022-11-16T10:33:13.229Z,93695
2022-11-16T10:36:38.319Z,93692
2022-11-16T10:40:03.538Z,93685
2022-11-16T10:43:28.744Z,93679
2022-11-16T10:46:53.945Z,93678
2022-11-16T10:50:19.324Z,93679
2022-11-16T10:53:44.343Z,93676
2022-11-16T10:57:09.556Z,93676
2022-11-16T11:00:34.827Z,93669
2022-11-16T11:03:59.994Z,93663
2022-11-16T11:07:25.389Z,93669
2022-11-16T11:10:50.414Z,93666
2022-11-16T11:14:15.631Z,93667
2022-11-16T11:17:40.838Z,93668
2022-11-16T11:21:06.056Z,93672
2022-11-16T11:24:44.246Z,93672
2022-11-16T11:27:56.458Z,93675
2022-11-16T11:31:21.667Z,93671
2022-11-16T11:34:46.876Z,93671
2022-11-16T11:38:12.074Z,93664
2022-11-16T11:41:37.411Z,93667
2022-11-16T11:45:02.496Z,93673
2022-11-16T11:48:27.700Z,93669
2022-11-16T11:51:52.898Z,93674
2022-11-16T11:55:18.108Z,93662
2022-11-16T11:58:43.356Z,93670
2022-11-16T12:02:08.526Z,93670
2022-11-16T12:05:33.785Z,93664
2022-11-16T12:08:58.970Z,93665
2022-11-16T12:12:24.200Z,93671
2022-11-16T12:15:49.535Z,93661
2022-11-16T12:19:14.604Z,93663
2022-11-16T12:22:39.802Z,93665
2022-11-16T12:26:04.996Z,93660
2022-11-16T12:29:30.203Z,93655
2022-11-16T12:32:55.530Z,93657
2022-11-16T12:36:20.616Z,93656
2022-11-16T12:39:46.992Z,93663
2022-11-16T12:43:12.201Z,93651
2022-11-16T12:46:37.453Z,93648
2022-11-16T12:50:02.706Z,93646
2022-11-16T12:53:28.005Z,93645
2022-11-16T12:56:53.408Z,93650
2022-11-16T13:00:18.671Z,93648
2022-11-16T13:03:43.989Z,93638
2022-11-16T13:07:11.040Z,93646
2022-11-16T13:10:34.571Z,93640
2022-11-16T13:14:00.344Z,93647
2022-11-16T13:17:25.166Z,93644
2022-11-16T13:20:50.432Z,93651
2022-11-16T13:24:15.911Z,93655
2022-11-16T13:27:41.040Z,93644
2022-11-16T13:31:06.452Z,93641
2022-11-16T13:34:31.704Z,93647
2022-11-16T13:37:57.000Z,93645
2022-11-16T13:41:22.412Z,93639
2022-11-16T13:44:51.498Z,93639
2022-11-16T13:48:12.904Z,93644
2022-11-16T13:51:38.175Z,93632
2022-11-16T13:55:03.440Z,93629
2022-11-16T13:58:28.868Z,93620
2022-11-16T14:01:53.989Z,93618
2022-11-16T14:05:19.367Z,93624
2022-11-16T14:08:44.641Z,93626
2022-11-16T14:12:09.930Z,93630
2022-11-16T14:15:35.190Z,93629
2022-11-16T14:19:00.491Z,93623
2022-11-16T14:22:25.779Z,93620
2022-11-16T14:25:51.088Z,93609
2022-11-16T14:29:16.467Z,93616
2022-11-16T15:06:08.523Z,93588
2022-11-16T15:09:33.754Z,93590
2022-11-16T15:12:58.961Z,93589
2022-11-16T15:16:24.221Z,93586
2022-11-16T15:19:49.568Z,93586
2022-11-16T15:23:14.958Z,93580
2022-11-16T15:26:40.207Z,93586
2022-11-16T15:30:05.521Z,93585
2022-11-16T15:33:30.945Z,93585
2022-11-16T15:36:56.113Z,93581
2022-11-16T15:40:21.455Z,93591
2022-11-16T15:44:09.293Z,93600
2022-11-16T15:47:11.950Z,93606
2022-11-16T15:50:37.266Z,93612
2022-11-16T15:54:02.599Z,93606
2022-11-16T15:57:27.863Z,93609
2022-11-16T16:00:53.175Z,93610
2022-11-16T16:04:18.428Z,93610
2022-11-16T16:07:43.689Z,93619
2022-11-16T16:11:09.007Z,93623
2022-11-16T16:14:34.445Z,93619
2022-11-16T16:17:59.584Z,93619
2022-11-16T16:21:24.884Z,93615
2022-11-16T16:24:50.146Z,93617
2022-11-16T16:28:15.428Z,93627
2022-11-16T16:31:40.794Z,93629
2022-11-16T16:35:05.961Z,93630
2022-11-16T16:38:31.214Z,93631
2022-11-16T16:41:56.507Z,93631
2022-11-16T16:45:21.764Z,93636
2022-11-16T16:48:47.136Z,93633
2022-11-16T16:52:12.312Z,93626
2022-11-16T16:55:37.896Z,93632
2022-11-16T16:59:02.911Z,93636
2022-11-16T17:02:28.170Z,93631
2022-11-16T17:05:53.601Z,93626
2022-11-16T17:09:18.723Z,93634
2022-11-16T17:12:44.042Z,93626
2022-11-16T17:16:09.343Z,93625
2022-11-16T17:19:34.652Z,93632
2022-11-16T17:23:00.044Z,93635
2022-11-16T17:26:25.198Z,93628
2022-11-16T17:29:50.479Z,93622
2022-11-16T17:33:15.796Z,93626
2022-11-16T17:36:41.077Z,93627
2022-11-16T17:40:06.501Z,93619
2022-11-16T17:43:31.811Z,93613
2022-11-16T17:46:56.917Z,93611
2022-11-16T17:50:22.241Z,93611
2022-11-16T17:53:47.525Z,93605
2022-11-16T17:57:12.934Z,93602
2022-11-16T18:00:38.093Z,93605
2022-11-16T18:04:03.422Z,93605
2022-11-16T18:07:28.806Z,93605
2022-11-16T18:10:53.987Z,93603
2022-11-16T18:14:19.299Z,93609
2022-11-16T18:17:44.555Z,93606
2022-11-16T18:21:09.856Z,93607
2022-11-16T18:24:35.150Z,93606
2022-11-16T18:28:00.464Z,93609
2022-11-16T18:31:25.844Z,93610
2022-11-16T18:34:50.994Z,93605
2022-11-16T18:38:16.322Z,93598
2022-11-16T18:41:41.587Z,93595
2022-11-16T18:45:06.946Z,93590
2022-11-16T18:48:32.365Z,93591
2022-11-16T18:52:02.287Z,93579
2022-11-16T18:55:27.778Z,93574
2022-11-16T18:58:53.931Z,93578
2022-11-16T19:02:19.158Z,93571
2022-11-16T19:05:45.725Z,93568
2022-11-16T19:09:10.908Z,93557
2022-11-16T19:12:36.274Z,93556
2022-11-16T19:16:01.458Z,93556
2022-11-16T19:19:26.681Z,93554
2022-11-16T19:22:52.016Z,93554
2022-11-16T19:26:17.108Z,93553
2022-11-16T19:29:42.333Z,93549
2022-11-16T19:33:07.623Z,93551
2022-11-16T19:36:32.845Z,93545
2022-11-16T19:39:58.099Z,93541
2022-11-16T19:43:23.333Z,93545
2022-11-16T19:46:48.573Z,93542
2022-11-16T19:50:13.808Z,93542
2022-11-16T19:53:39.075Z,93546
2022-11-16T19:57:04.322Z,93547
2022-11-16T20:00:29.517Z,93545
2022-11-16T20:03:54.725Z,93553
2022-11-16T20:07:19.951Z,93552
2022-11-16T20:10:45.948Z,93543
2022-11-16T20:14:11.276Z,93541
2022-11-16T20:17:36.424Z,93545
2022-11-16T20:21:01.666Z,93544
2022-11-16T20:24:26.923Z,93542
2022-11-16T20:27:52.168Z,93539
2022-11-16T20:31:17.396Z,93535
2022-11-16T20:34:42.600Z,93536
2022-11-16T20:38:07.870Z,93535
2022-11-16T20:41:33.114Z,93546
2022-11-16T20:44:58.346Z,93545
2022-11-16T20:48:23.622Z,93551
2022-11-16T20:51:48.842Z,93547
2022-11-16T20:55:14.113Z,93551
2022-11-16T20:58:39.347Z,93550
2022-11-16T21:02:04.557Z,93544
2022-11-16T21:05:29.805Z,93552
2022-11-16T21:08:54.993Z,93548
2022-11-16T21:12:20.225Z,93548
2022-11-16T21:15:45.505Z,93551
2022-11-16T21:19:10.718Z,93550
2022-11-16T21:22:35.955Z,93549
2022-11-16T21:26:01.143Z,93545
2022-11-16T21:29:26.343Z,93549
2022-11-16T21:32:51.547Z,93545
2022-11-16T21:36:16.798Z,93545
2022-11-16T21:39:42.185Z,93546
2022-11-16T21:43:07.239Z,93546
2022-11-16T21:46:32.431Z,93560
2022-11-16T21:53:22.846Z,93542
2022-11-16T21:56:48.143Z,93537
2022-11-16T22:00:13.236Z,93526
2022-11-16T22:03:38.591Z,93531
2022-11-16T22:07:03.710Z,93523
2022-11-16T22:10:28.876Z,93519
2022-11-16T22:13:54.098Z,93511
2022-11-16T22:17:19.259Z,93511
2022-11-16T22:20:44.467Z,93516
2022-11-16T22:24:09.670Z,93518
2022-11-16T22:27:46.965Z,93522
2022-11-16T22:31:00.211Z,93522
2022-11-16T22:34:25.290Z,93511
2022-11-16T22:37:50.490Z,93507
2022-11-16T22:41:15.712Z,93503
2022-11-16T22:44:40.939Z,93499
2022-11-16T22:48:06.163Z,93500
2022-11-16T22:51:31.323Z,93500
2022-11-16T22:54:56.555Z,93488
2022-11-16T22:58:21.764Z,93491
2022-11-16T23:01:46.961Z,93485
2022-11-16T23:05:12.190Z,93490
2022-11-16T23:08:37.378Z,93477
2022-11-16T23:12:02.564Z,93462
2022-11-16T23:15:27.756Z,93461
2022-11-16T23:18:52.953Z,93456
2022-11-16T23:22:18.182Z,93455
2022-11-16T23:25:43.376Z,93457
2022-11-16T23:29:08.582Z,93453
2022-11-16T23:32:33.766Z,93461
2022-11-16T23:35:58.969Z,93457
2022-11-16T23:39:24.280Z,93459
2022-11-16T23:42:49.345Z,93451
2022-11-16T23:46:14.542Z,93447
2022-11-16T23:49:39.741Z,93448
2022-11-16T23:53:04.942Z,93443
2022-11-16T23:56:30.202Z,93438
2022-11-16T23:59:55.404Z,93429
